Sagittarian — WCY5210 — position and weather

sailwx.info

Track history (hours):
 
Tides and Currents Weather Stations Pressure Air Temp Water Temp Dewpoint Dewpoint Depression Visibility Wind Speed Wind Dir Waves Ship Positions

Sagittarian

Owner: TAURUS MARINE, SAN FRANCISCO, CA. More information available from US FCC via Universal Licensing System and Coast Guard Vessel Documentation Center.

Last reported at 2015-Jul-28 03:33 UTC. Time now 2015-Jul-28 08:27 UTC.
Position N 37°46' W 122°23'.

; draft 3 m.

Type: Towing. MMSI: 366969510.

Date/timePositionNaut miles runAvg speedWind from/ knotsBaromVisibWave heightAir tempDewpointWater temp
2015-Jul-28 03:33N 37°46' W 122°23'0 0.0
2015-Jul-28 02:33N 37°46' W 122°23'0 0.0
2015-Jul-28 01:33N 37°46' W 122°23'0 0.0
2015-Jul-28 00:33N 37°46' W 122°23'0 0.0
2015-Jul-27 23:33N 37°46' W 122°23'5 5.4
2015-Jul-27 22:33N 37°52' W 122°25'1 1.2
2015-Jul-27 21:33N 37°53' W 122°25'5 5.1
2015-Jul-27 20:33N 37°49' W 122°29'1 1.5
2015-Jul-27 19:33N 37°47' W 122°30'0 0.1
2015-Jul-27 18:33N 37°48' W 122°30'6 5.5
2015-Jul-27 17:33N 37°47' W 122°23'0 0.0
2015-Jul-26 22:32N 37°46' W 122°23'4 4.2
2015-Jul-26 21:33N 37°49' W 122°19'3 2.5
2015-Jul-26 20:33N 37°48' W 122°22'1 0.2
2015-Jul-26 16:34N 37°48' W 122°23'7 6.6
2015-Jul-26 15:33N 37°49' W 122°31'5 5.2
2015-Jul-26 14:34N 37°51' W 122°25'5 4.8
2015-Jul-26 13:33N 37°55' W 122°25'0 0.3
2015-Jul-26 12:34N 37°55' W 122°25'9 8.8
2015-Jul-26 11:34N 37°46' W 122°23'0 0.0
2015-Jul-26 02:34N 37°46' W 122°23'0 0.0
2015-Jul-25 18:31N 37°46' W 122°23'7 7.2
2015-Jul-25 17:33N 37°53' W 122°25'2 2.1
2015-Jul-25 16:33N 37°55' W 122°26'8 6.1
2015-Jul-25 15:18N 38°02' W 122°21'12 5.5
2015-Jul-25 13:04N 38°03' W 122°06'4 7.5
2015-Jul-25 12:33N 38°03' W 122°11'2 0.1
2015-Jul-24 20:21N 38°04' W 122°14'1 0.1
2015-Jul-24 11:05N 38°03' W 122°12'3 5.6
2015-Jul-24 10:33N 38°04' W 122°16'5 5.2
2015-Jul-24 09:33N 38°02' W 122°22'6 5.9
2015-Jul-24 08:33N 37°57' W 122°27'2 2.4
2015-Jul-24 07:33N 37°55' W 122°26'9 8.6
2015-Jul-24 06:33N 37°46' W 122°23'0 0.0
2015-Jul-24 02:33N 37°46' W 122°23'0 0.0
2015-Jul-23 06:12N 37°46' W 122°23'4 6.9
2015-Jul-23 05:33N 37°48' W 122°18'0 0.1
2015-Jul-23 04:33N 37°48' W 122°18'0 0.0
2015-Jul-23 03:33N 37°47' W 122°18'0 0.1
2015-Jul-23 02:33N 37°48' W 122°18'0 0.1
2015-Jul-23 01:33N 37°47' W 122°18'0 0.1
2015-Jul-23 00:33N 37°48' W 122°18'0 0.1
2015-Jul-22 23:33N 37°47' W 122°17'0 0.0
2015-Jul-22 22:33N 37°47' W 122°17'0 0.0
2015-Jul-22 21:33N 37°47' W 122°17'0 0.1
2015-Jul-22 20:33N 37°47' W 122°18'0 0.1
2015-Jul-22 19:33N 37°48' W 122°17'0 0.0
2015-Jul-22 18:33N 37°48' W 122°17'0 0.0
2015-Jul-22 17:33N 37°48' W 122°17'0 0.0
2015-Jul-22 16:33N 37°48' W 122°17'0 0.0
2015-Jul-22 15:33N 37°48' W 122°17'0 0.0
2015-Jul-22 14:33N 37°48' W 122°17'0 0.1
2015-Jul-22 13:33N 37°47' W 122°18'4 4.4
2015-Jul-22 12:33N 37°46' W 122°23'0 0.0
2015-Jul-21 22:33N 37°47' W 122°23'3 2.8
2015-Jul-21 21:33N 37°49' W 122°22'0 0.0
2015-Jul-21 20:33N 37°49' W 122°22'2 2.2
2015-Jul-21 19:33N 37°48' W 122°19'1 1.5
2015-Jul-21 18:34N 37°48' W 122°18'2 1.6
2015-Jul-21 17:33N 37°48' W 122°20'  
Track history (hours):
 
Tides and Currents Weather Stations Pressure Air Temp Water Temp Dewpoint Dewpoint Depression Visibility Wind Speed Wind Dir Waves Ship Positions

Sagittarian

Owner: TAURUS MARINE, SAN FRANCISCO, CA. More information available from US FCC via Universal Licensing System and Coast Guard Vessel Documentation Center.

Last reported at 2015-Jul-28 03:33 UTC. Time now 2015-Jul-28 08:27 UTC.
Position N 37°46' W 122°23'.

; draft 3 m.

Type: Towing. MMSI: 366969510.

Date/timePositionNaut miles runAvg speedWind from/ knotsBaromVisibWave heightAir tempDewpointWater temp
2015-Jul-28 03:33N 37°46' W 122°23'0 0.0
2015-Jul-28 02:33N 37°46' W 122°23'0 0.0
2015-Jul-28 01:33N 37°46' W 122°23'0 0.0
2015-Jul-28 00:33N 37°46' W 122°23'0 0.0
2015-Jul-27 23:33N 37°46' W 122°23'5 5.4
2015-Jul-27 22:33N 37°52' W 122°25'1 1.2
2015-Jul-27 21:33N 37°53' W 122°25'5 5.1
2015-Jul-27 20:33N 37°49' W 122°29'1 1.5
2015-Jul-27 19:33N 37°47' W 122°30'0 0.1
2015-Jul-27 18:33N 37°48' W 122°30'6 5.5
2015-Jul-27 17:33N 37°47' W 122°23'0 0.0
2015-Jul-26 22:32N 37°46' W 122°23'4 4.2
2015-Jul-26 21:33N 37°49' W 122°19'3 2.5
2015-Jul-26 20:33N 37°48' W 122°22'1 0.2
2015-Jul-26 16:34N 37°48' W 122°23'7 6.6
2015-Jul-26 15:33N 37°49' W 122°31'5 5.2
2015-Jul-26 14:34N 37°51' W 122°25'5 4.8
2015-Jul-26 13:33N 37°55' W 122°25'0 0.3
2015-Jul-26 12:34N 37°55' W 122°25'9 8.8
2015-Jul-26 11:34N 37°46' W 122°23'0 0.0
2015-Jul-26 02:34N 37°46' W 122°23'0 0.0
2015-Jul-25 18:31N 37°46' W 122°23'7 7.2
2015-Jul-25 17:33N 37°53' W 122°25'2 2.1
2015-Jul-25 16:33N 37°55' W 122°26'8 6.1
2015-Jul-25 15:18N 38°02' W 122°21'12 5.5
2015-Jul-25 13:04N 38°03' W 122°06'4 7.5
2015-Jul-25 12:33N 38°03' W 122°11'2 0.1
2015-Jul-24 20:21N 38°04' W 122°14'1 0.1
2015-Jul-24 11:05N 38°03' W 122°12'3 5.6
2015-Jul-24 10:33N 38°04' W 122°16'5 5.2
2015-Jul-24 09:33N 38°02' W 122°22'6 5.9
2015-Jul-24 08:33N 37°57' W 122°27'2 2.4
2015-Jul-24 07:33N 37°55' W 122°26'9 8.6
2015-Jul-24 06:33N 37°46' W 122°23'0 0.0
2015-Jul-24 02:33N 37°46' W 122°23'0 0.0
2015-Jul-23 06:12N 37°46' W 122°23'4 6.9
2015-Jul-23 05:33N 37°48' W 122°18'0 0.1
2015-Jul-23 04:33N 37°48' W 122°18'0 0.0
2015-Jul-23 03:33N 37°47' W 122°18'0 0.1
2015-Jul-23 02:33N 37°48' W 122°18'0 0.1
2015-Jul-23 01:33N 37°47' W 122°18'0 0.1
2015-Jul-23 00:33N 37°48' W 122°18'0 0.1
2015-Jul-22 23:33N 37°47' W 122°17'0 0.0
2015-Jul-22 22:33N 37°47' W 122°17'0 0.0
2015-Jul-22 21:33N 37°47' W 122°17'0 0.1
2015-Jul-22 20:33N 37°47' W 122°18'0 0.1
2015-Jul-22 19:33N 37°48' W 122°17'0 0.0
2015-Jul-22 18:33N 37°48' W 122°17'0 0.0
2015-Jul-22 17:33N 37°48' W 122°17'0 0.0
2015-Jul-22 16:33N 37°48' W 122°17'0 0.0
2015-Jul-22 15:33N 37°48' W 122°17'0 0.0
2015-Jul-22 14:33N 37°48' W 122°17'0 0.1
2015-Jul-22 13:33N 37°47' W 122°18'4 4.4
2015-Jul-22 12:33N 37°46' W 122°23'0 0.0
2015-Jul-21 22:33N 37°47' W 122°23'3 2.8
2015-Jul-21 21:33N 37°49' W 122°22'0 0.0
2015-Jul-21 20:33N 37°49' W 122°22'2 2.2
2015-Jul-21 19:33N 37°48' W 122°19'1 1.5
2015-Jul-21 18:34N 37°48' W 122°18'2 1.6
2015-Jul-21 17:33N 37°48' W 122°20'  

Dump ship's entire track history